Nearby METAR Reports

 

KOZR - Ozark/Cairns Aaf, Alabama, USA
Distance from station: SSW 2mi, 3km
Updated: Thu, 22-Feb-2018 11:56pm CST
Clear
Clear
 Wind from calm
Wind: Calm
Temperature: 64°F , 18°C
Dew Point: 61°F , 16°C
Humidity: 88%
Barometer: 30.35 inHg , 1027.8 hPa
Clouds: Clear
Visibility: 10 miles , 16 km
2018/02/23 05:56 KOZR 230556Z AUTO 00000KT 10SM CLR 18/16 A3035 RMK AO2 SLP278 T01760164 10246 20171 402870159 58005
KLOR - Lowe Ahp/Ft. Ruc, Alabama, USA
Distance from station: NW 4mi, 6km
Updated: Thu, 22-Feb-2018 11:58pm CST
Clear
Clear
 Wind from calm
Wind: Calm
Temperature: 61°F , 16°C
Dew Point: 61°F , 16°C
Humidity: 100%
Barometer: 30.35 inHg , 1027.8 hPa
Clouds: Clear
Visibility: 10 miles , 16 km
2018/02/23 05:58 KLOR 230558Z AUTO 00000KT 10SM CLR 16/16 A3035 RMK AO2 SLP259 T01620159 10247 20161 402900150 58003 $
 
KHEY - Ft Rucker/Hanche, Alabama, USA
Distance from station: NE 4mi, 7km
Updated: Thu, 22-Feb-2018 11:58pm CST
Clear
Clear
 Wind from calm
Wind: Calm
Temperature: 63°F , 17°C
Dew Point: 61°F , 16°C
Humidity: 94%
Barometer: 30.34 inHg , 1027.4 hPa
Clouds: Clear
Visibility: 10 miles , 16 km
2018/02/23 05:58 KHEY 230558Z AUTO 00000KT 10SM CLR 17/16 A3034 RMK AO2 SLP274 T01680158 10245 20168 402850154 58003
KSXS - Ft Rucker/Shell, Alabama, USA
Distance from station: WNW 9mi, 15km
Updated: Thu, 22-Feb-2018 11:58pm CST

 
2018/02/23 05:58 KSXS 230558Z AUTO M M M M M M RMK AO2 SLPNO PWINO PNO FZRANO TSNO $
 
KEDN - Enterprise, Alabama, USA
Distance from station: W 11mi, 18km
Updated: Fri, 23-Feb-2018 12:35am CST
Clear
Clear
 Wind from calm
Wind: Calm
Temperature: 61°F , 16°C
Dew Point: 61°F , 16°C
Humidity: 100%
Barometer: 30.35 inHg , 1027.8 hPa
Clouds: Clear
Visibility: M 7 miles , 11 km
2018/02/23 06:35 KEDN 230635Z AUTO 00000KT 7SM CLR 16/16 A3035 RMK AO2 T01620162
KDHN - Dothan, Alabama, USA
Distance from station: E 15mi, 24km
Updated: Thu, 22-Feb-2018 11:53pm CST
Clear
Clear
 Wind from NE
Wind: NE 3 mph , 6 km/h
Temperature: 63°F , 17°C
Dew Point: 57°F , 14°C
Humidity: 83%
Barometer: 30.39 inHg , 1029.1 hPa
Clouds: Clear
Visibility: 8 miles , 13 km
2018/02/23 05:53 KDHN 230553Z AUTO 04003KT 8SM CLR 17/14 A3039 RMK AO2 SLP285 T01670144 10244 20167 58001
 
K1J0 - Bonifay Tri-Cty, Florida, USA
Distance from station: SSE 32mi, 52km
Updated: Thu, 09-Nov-2017 4:58am CST
NOT Current
Overcast
Overcast
 Wind from varies
Wind: varies 5 mph , 7 km/h
Temperature: 63°F , 17°C
Dew Point: 63°F , 17°C
Humidity: 100%
Barometer: 30.04 inHg , 1017.3 hPa
Clouds: Overcast
Visibility: 8 miles , 13 km
Cloud details: Overcast 1200 ft
2017/11/09 10:58 K1J0 091058Z AUTO VRB04KT 8SM OVC012 17/17 A3004 RMK AO2 SLP131 T01720167 $
K0J4 - Florala Muni, Alabama, USA
Distance from station: WSW 40mi, 65km
Updated: Thu, 22-Feb-2018 11:58pm CST
Mist, Clear
Mist, Clear
 Wind from calm
Wind: Calm
Temperature: 63°F , 17°C
Dew Point: 59°F , 15°C
Humidity: 88%
Barometer: 30.36 inHg , 1028.1 hPa
Summary: Mist
Clouds: Clear
Visibility: 6 miles , 10 km
2018/02/23 05:58 K0J4 230558Z AUTO 00000KT 6SM BR CLR 17/15 A3036 RMK AO2 SLP278 T01670150 10239 20167 58005
 
K79J - Andalusia/Opp Ar, Alabama, USA
Distance from station: W 41mi, 66km
Updated: Thu, 22-Feb-2018 11:56pm CST
Clear
Clear
 Wind from calm
Wind: Calm
Temperature: 64°F , 18°C
Dew Point: 61°F , 16°C
Humidity: 88%
Barometer: 30.34 inHg , 1027.4 hPa
Clouds: Clear
Visibility: 10 miles , 16 km
2018/02/23 05:56 K79J 230556Z AUTO 00000KT 10SM CLR 18/16 A3034 RMK AO2 SLP272 T01780156 10250 20178 58003
KTOI - Troy, Alabama, USA
Distance from station: NNW 42mi, 67km
Updated: Thu, 22-Feb-2018 11:53pm CST
Clear
Clear
 Wind from calm
Wind: Calm
Temperature: 63°F , 17°C
Dew Point: 61°F , 16°C
Humidity: 94%
Barometer: 30.37 inHg , 1028.4 hPa
Clouds: Clear
Visibility: 10 miles , 16 km
2018/02/23 05:53 KTOI 230553Z AUTO 00000KT 10SM CLR 17/16 A3037 RMK AO2 SLP280 T01720156 10239 20172 402940161 50004
 
KMAI - Marianna, Florida, USA
Distance from station: SE 45mi, 73km
Updated: Thu, 22-Feb-2018 11:53pm CST
Clear
Clear
 Wind from calm
Wind: Calm
Temperature: 64°F , 18°C
Dew Point: 61°F , 16°C
Humidity: 88%
Barometer: 30.35 inHg , 1027.8 hPa
Clouds: Clear
Visibility: 10 miles , 16 km
2018/02/23 05:53 KMAI 230553Z AUTO 00000KT 10SM CLR 18/16 A3035 RMK AO2 SLP275 T01780161 10250 20172 402890150 56004
K54J - De Funiak Sprngs, Florida, USA
Distance from station: SSW 48mi, 77km
Updated: Fri, 23-Feb-2018 12:35am CST
Mist, Mostly cloudy
Mist, Mostly cloudy
 Wind from calm
Wind: Calm
Temperature: 64°F , 18°C
Dew Point: 64°F , 18°C
Humidity: 100%
Barometer: 30.35 inHg , 1027.8 hPa
Summary: Mist
Clouds: Mostly cloudy
Visibility: 1 3/4 miles , 5 km
Cloud details: Mostly cloudy 6000 ft
2018/02/23 06:35 K54J 230635Z AUTO 00000KT 1 3/4SM BR BKN060 18/18 A3035 RMK AO2 T01770176
 
KBIJ - Blakely Early C, Georgia, USA
Distance from station: E 48mi, 77km
Updated: Fri, 23-Feb-2018 12:35am CST
Clear
Clear
 Wind from calm
Wind: Calm
Temperature: 63°F , 17°C
Dew Point: 59°F , 15°C
Humidity: 88%
Barometer: 30.37 inHg , 1028.4 hPa
Clouds: Clear
Visibility: 10 miles , 16 km
2018/02/23 06:35 KBIJ 230635Z AUTO 00000KT 10SM CLR 17/15 A3037 RMK AO2
KEUF - Eufaula, Alabama, USA
Distance from station: NE 56mi, 90km
Updated: Thu, 22-Feb-2018 11:58pm CST
Clear
Clear
 Wind from calm
Wind: Calm
Temperature: 63°F , 17°C
Dew Point: 61°F , 16°C
Humidity: 94%
Barometer: 30.35 inHg , 1027.8 hPa
Clouds: Clear
Visibility: 10 miles , 16 km
2018/02/23 05:58 KEUF 230558Z AUTO 00000KT 10SM CLR 17/16 A3035 RMK AO2 SLP273 T01670156 10244 20167 403060150 58003
 
KCEW - Crestview, Florida, USA
Distance from station: SW 60mi, 97km
Updated: Thu, 22-Feb-2018 11:53pm CST
Fog, Overcast
Fog, Overcast
 Wind from calm
Wind: Calm
Temperature: 59°F , 15°C
Dew Point: 57°F , 14°C
Humidity: 94%
Barometer: 30.35 inHg , 1027.8 hPa
Summary: Fog
Clouds: Overcast
Visibility: 1/4 mile , 2 km
Cloud details: Overcast 100 ft
2018/02/23 05:53 KCEW 230553Z AUTO 00000KT 1/4SM FG VV001 15/14 A3035 RMK AO2 SLP275 T01500144 10228 20150 402890150 58006 $
KPRN - Greenville, Alabama, USA
Distance from station: NW 65mi, 105km
Updated: Thu, 22-Feb-2018 11:56pm CST
Clear
Clear
 Wind from calm
Wind: Calm
Temperature: 66°F , 19°C
Dew Point: 61°F , 16°C
Humidity: 83%
Barometer: 30.35 inHg , 1027.8 hPa
Clouds: Clear
Visibility: 10 miles , 16 km
2018/02/23 05:56 KPRN 230556Z AUTO 00000KT 10SM CLR 19/16 A3035 RMK AO2 SLP272 T01940156 10250 20189 402890172 50003
 
KECP - Panama City, Florida, USA
Distance from station: S 67mi, 107km
Updated: Thu, 22-Feb-2018 11:53pm CST
Partly cloudy
Partly cloudy
 Wind from calm
Wind: Calm
Temperature: 61°F , 16°C
Dew Point: 59°F , 15°C
Humidity: 94%
Barometer: 30.34 inHg , 1027.4 hPa
Clouds: Partly cloudy
Visibility: 10 miles , 16 km
Cloud details: Partly cloudy 6000 ft
2018/02/23 05:53 KECP 230553Z AUTO 00000KT 10SM SCT060 16/15 A3034 RMK AO2 SLP284 T01560150 10217 20156 402670156 58006
KEGI - Duke Fld/Eglin, Florida, USA
Distance from station: SW 67mi, 108km
Updated: Fri, 23-Feb-2018 12:43am CST
Mist, Clear
Mist, Clear
 Wind from calm
Wind: Calm
Temperature: 59°F , 15°C
Dew Point: 59°F , 15°C
Humidity: 100%
Barometer: 30.33 inHg , 1027.1 hPa
Summary: Mist
Clouds: Clear
Visibility: 7/8 mile , 11 km
2018/02/23 06:43 KEGI 230643Z AUTO 00000KT 7/8SM BR CLR 15/15 A3033 RMK AO2 VIS 7/8V7 SLP271 RVRNO $
 
KBGE - Bainbridge, Georgia, USA
Distance from station: ESE 68mi, 109km
Updated: Fri, 23-Feb-2018 12:35am CST
Clear
Clear
 Wind from ESE
Wind: ESE 5 mph , 7 km/h
Temperature: 64°F , 18°C
Dew Point: 64°F , 18°C
Humidity: 100%
Barometer: 30.36 inHg , 1028.1 hPa
Clouds: Clear
Visibility: 10 miles , 16 km
2018/02/23 06:35 KBGE 230635Z AUTO 12004KT 10SM CLR 18/18 A3036 RMK AO2
KVPS - Eglin Afb/Valpar, Florida, USA
Distance from station: SW 75mi, 121km
Updated: Thu, 22-Feb-2018 11:55pm CST
Clear
Clear
 Wind from calm
Wind: Calm
Temperature: 66°F , 19°C
Dew Point: 66°F , 19°C
Humidity: 100%
Barometer: 30.32 inHg , 1026.8 hPa
Clouds: Clear
Visibility: 10 miles , 16 km
2018/02/23 05:55 KVPS 230555Z 00000KT 10SM CLR 19/19 A3032 RMK AO2A SLP273 T01920185 10209 20188 402520188 58007 $